KEDE/EDE METAR and TAF weather

Enter ICAO airport designator
Station Type Date Time Source
KEDE METAR 2020/02/27 14:15 UTC NOAA

KEDE 271415Z AUTO 32015G20KT 10SM CLR 08/M01 A2988 RMK AO2 T00821006


Station Type Date Time Source
KEDE Decoded METAR 2020/02/27 14:15 UTC NOAA

Edenton, Northeastern Regional Airport, NC, United States (KEDE) 36-01-40N 076-34-02W
Feb 27, 2020 - 09:15 AM EST / 2020.02.27 1415 UTC
Wind: from the NW (320 degrees) at 17 MPH (15 KT) gusting to 23 MPH (20 KT):0
Visibility: 10 mile(s):0
Sky conditions: clear
Temperature: 46.8 F (8.2 C)
Dew Point: 30.9 F (-0.6 C)
Relative Humidity: 53%
Pressure (altimeter): 29.88 in. Hg (1011 hPa)
ob: KEDE 271415Z AUTO 32015G20KT 10SM CLR 08/M01 A2988 RMK AO2 T00821006
cycle: 14

Station Type Date Time Source
KEDE TAF UTC NOAA

Error!

Example: see airport list